sensor_id;sensor_type;location;lat;lon;timestamp;P1;durP1;ratioP1;P2;durP2;ratioP2
82920;SDS011;72696;52.372;9.722;2023-10-08T00:02:24;1.25;;;1.13;;
82920;SDS011;72696;52.372;9.722;2023-10-08T00:04:53;1.17;;;0.88;;
82920;SDS011;72696;52.372;9.722;2023-10-08T00:07:22;1.17;;;1.08;;
82920;SDS011;72696;52.372;9.722;2023-10-08T00:09:51;0.70;;;0.70;;
82920;SDS011;72696;52.372;9.722;2023-10-08T00:12:18;2.40;;;1.25;;
82920;SDS011;72696;52.372;9.722;2023-10-08T00:14:44;1.42;;;1.23;;
82920;SDS011;72696;52.372;9.722;2023-10-08T00:17:12;1.10;;;1.00;;
82920;SDS011;72696;52.372;9.722;2023-10-08T00:19:38;2.13;;;1.35;;
82920;SDS011;72696;52.372;9.722;2023-10-08T00:22:04;0.82;;;0.82;;
82920;SDS011;72696;52.372;9.722;2023-10-08T00:24:31;1.67;;;0.98;;
82920;SDS011;72696;52.372;9.722;2023-10-08T00:26:58;1.15;;;1.08;;
82920;SDS011;72696;52.372;9.722;2023-10-08T00:29:25;1.67;;;1.35;;
82920;SDS011;72696;52.372;9.722;2023-10-08T00:31:51;1.38;;;1.20;;
82920;SDS011;72696;52.372;9.722;2023-10-08T00:34:17;2.05;;;1.48;;
82920;SDS011;72696;52.372;9.722;2023-10-08T00:36:45;1.00;;;0.90;;
82920;SDS011;72696;52.372;9.722;2023-10-08T00:39:11;0.73;;;0.73;;
82920;SDS011;72696;52.372;9.722;2023-10-08T00:41:45;0.60;;;0.60;;
82920;SDS011;72696;52.372;9.722;2023-10-08T00:44:11;1.25;;;0.95;;
82920;SDS011;72696;52.372;9.722;2023-10-08T00:46:40;1.20;;;1.02;;
82920;SDS011;72696;52.372;9.722;2023-10-08T00:49:20;0.45;;;0.45;;
82920;SDS011;72696;52.372;9.722;2023-10-08T00:51:47;0.70;;;0.70;;
82920;SDS011;72696;52.372;9.722;2023-10-08T00:54:25;0.82;;;0.80;;
82920;SDS011;72696;52.372;9.722;2023-10-08T00:56:53;0.63;;;0.55;;
82920;SDS011;72696;52.372;9.722;2023-10-08T00:59:23;0.70;;;0.70;;
82920;SDS011;72696;52.372;9.722;2023-10-08T01:01:50;1.15;;;0.82;;
82920;SDS011;72696;52.372;9.722;2023-10-08T01:04:17;0.77;;;0.75;;
82920;SDS011;72696;52.372;9.722;2023-10-08T01:06:52;1.77;;;0.75;;
82920;SDS011;72696;52.372;9.722;2023-10-08T01:09:21;0.75;;;0.60;;
82920;SDS011;72696;52.372;9.722;2023-10-08T01:12:33;0.65;;;0.50;;
82920;SDS011;72696;52.372;9.722;2023-10-08T01:14:58;0.85;;;0.70;;
82920;SDS011;72696;52.372;9.722;2023-10-08T01:17:30;1.13;;;1.10;;
82920;SDS011;72696;52.372;9.722;2023-10-08T01:19:57;2.22;;;1.35;;
82920;SDS011;72696;52.372;9.722;2023-10-08T01:22:45;1.23;;;0.98;;
82920;SDS011;72696;52.372;9.722;2023-10-08T01:25:10;2.60;;;1.35;;
82920;SDS011;72696;52.372;9.722;2023-10-08T01:27:36;1.83;;;1.17;;
82920;SDS011;72696;52.372;9.722;2023-10-08T01:30:02;1.67;;;1.17;;
82920;SDS011;72696;52.372;9.722;2023-10-08T01:32:48;1.27;;;1.17;;
82920;SDS011;72696;52.372;9.722;2023-10-08T01:35:13;1.30;;;1.13;;
82920;SDS011;72696;52.372;9.722;2023-10-08T01:37:50;1.27;;;0.80;;
82920;SDS011;72696;52.372;9.722;2023-10-08T01:40:16;3.63;;;1.50;;
82920;SDS011;72696;52.372;9.722;2023-10-08T01:42:42;3.78;;;1.70;;
82920;SDS011;72696;52.372;9.722;2023-10-08T01:45:08;1.77;;;1.10;;
82920;SDS011;72696;52.372;9.722;2023-10-08T01:47:35;1.48;;;1.10;;
82920;SDS011;72696;52.372;9.722;2023-10-08T01:50:01;1.35;;;1.02;;
82920;SDS011;72696;52.372;9.722;2023-10-08T01:52:30;2.15;;;1.20;;
82920;SDS011;72696;52.372;9.722;2023-10-08T01:54:56;3.00;;;1.23;;
82920;SDS011;72696;52.372;9.722;2023-10-08T01:57:23;1.33;;;1.05;;
82920;SDS011;72696;52.372;9.722;2023-10-08T01:59:50;3.00;;;1.38;;
82920;SDS011;72696;52.372;9.722;2023-10-08T02:02:15;2.58;;;1.40;;
82920;SDS011;72696;52.372;9.722;2023-10-08T02:04:41;3.42;;;1.80;;
82920;SDS011;72696;52.372;9.722;2023-10-08T02:07:06;2.53;;;1.67;;
82920;SDS011;72696;52.372;9.722;2023-10-08T02:09:39;2.53;;;1.60;;
82920;SDS011;72696;52.372;9.722;2023-10-08T02:12:05;2.70;;;1.52;;
82920;SDS011;72696;52.372;9.722;2023-10-08T02:14:30;1.73;;;1.20;;
82920;SDS011;72696;52.372;9.722;2023-10-08T02:16:57;2.08;;;1.48;;
82920;SDS011;72696;52.372;9.722;2023-10-08T02:19:26;5.20;;;1.73;;
82920;SDS011;72696;52.372;9.722;2023-10-08T02:21:55;3.83;;;1.42;;
82920;SDS011;72696;52.372;9.722;2023-10-08T02:24:21;2.05;;;1.20;;
82920;SDS011;72696;52.372;9.722;2023-10-08T02:26:53;1.83;;;1.05;;
82920;SDS011;72696;52.372;9.722;2023-10-08T02:29:20;2.30;;;1.40;;
82920;SDS011;72696;52.372;9.722;2023-10-08T02:31:46;1.77;;;1.05;;
82920;SDS011;72696;52.372;9.722;2023-10-08T02:34:12;2.35;;;1.23;;
82920;SDS011;72696;52.372;9.722;2023-10-08T02:36:38;2.83;;;1.30;;
82920;SDS011;72696;52.372;9.722;2023-10-08T02:39:07;2.92;;;1.35;;
82920;SDS011;72696;52.372;9.722;2023-10-08T02:41:40;3.17;;;1.45;;
82920;SDS011;72696;52.372;9.722;2023-10-08T02:44:11;1.48;;;0.88;;
82920;SDS011;72696;52.372;9.722;2023-10-08T02:46:42;1.67;;;1.48;;
82920;SDS011;72696;52.372;9.722;2023-10-08T02:49:09;3.67;;;1.33;;
82920;SDS011;72696;52.372;9.722;2023-10-08T02:51:42;3.38;;;1.52;;
82920;SDS011;72696;52.372;9.722;2023-10-08T02:54:09;1.65;;;1.30;;
82920;SDS011;72696;52.372;9.722;2023-10-08T02:56:43;3.20;;;1.17;;
82920;SDS011;72696;52.372;9.722;2023-10-08T02:59:28;2.03;;;1.25;;
82920;SDS011;72696;52.372;9.722;2023-10-08T03:02:03;2.58;;;1.30;;
82920;SDS011;72696;52.372;9.722;2023-10-08T03:04:29;3.50;;;2.00;;
82920;SDS011;72696;52.372;9.722;2023-10-08T03:06:54;3.03;;;1.60;;
82920;SDS011;72696;52.372;9.722;2023-10-08T03:09:20;4.88;;;1.70;;
82920;SDS011;72696;52.372;9.722;2023-10-08T03:11:51;4.60;;;1.50;;
82920;SDS011;72696;52.372;9.722;2023-10-08T03:14:18;1.95;;;1.25;;
82920;SDS011;72696;52.372;9.722;2023-10-08T03:16:50;3.90;;;1.85;;
82920;SDS011;72696;52.372;9.722;2023-10-08T03:19:18;2.63;;;1.50;;
82920;SDS011;72696;52.372;9.722;2023-10-08T03:21:48;3.40;;;1.50;;
82920;SDS011;72696;52.372;9.722;2023-10-08T03:24:20;5.43;;;1.90;;
82920;SDS011;72696;52.372;9.722;2023-10-08T03:27:02;2.42;;;1.55;;
82920;SDS011;72696;52.372;9.722;2023-10-08T03:29:42;4.85;;;1.75;;
82920;SDS011;72696;52.372;9.722;2023-10-08T03:32:08;2.20;;;1.15;;
82920;SDS011;72696;52.372;9.722;2023-10-08T03:34:43;3.08;;;1.50;;
82920;SDS011;72696;52.372;9.722;2023-10-08T03:37:13;1.20;;;0.95;;
82920;SDS011;72696;52.372;9.722;2023-10-08T03:39:45;2.42;;;1.30;;
82920;SDS011;72696;52.372;9.722;2023-10-08T03:42:22;2.63;;;1.38;;
82920;SDS011;72696;52.372;9.722;2023-10-08T03:44:52;2.35;;;1.48;;
82920;SDS011;72696;52.372;9.722;2023-10-08T03:47:19;3.15;;;1.45;;
82920;SDS011;72696;52.372;9.722;2023-10-08T03:49:47;4.15;;;1.65;;
82920;SDS011;72696;52.372;9.722;2023-10-08T03:52:16;3.28;;;1.50;;
82920;SDS011;72696;52.372;9.722;2023-10-08T03:57:29;3.78;;;1.38;;
82920;SDS011;72696;52.372;9.722;2023-10-08T04:02:35;2.80;;;1.50;;
82920;SDS011;72696;52.372;9.722;2023-10-08T04:05:11;2.25;;;1.08;;
82920;SDS011;72696;52.372;9.722;2023-10-08T04:07:45;3.85;;;1.83;;
82920;SDS011;72696;52.372;9.722;2023-10-08T04:10:29;2.80;;;1.38;;
82920;SDS011;72696;52.372;9.722;2023-10-08T04:13:14;3.53;;;1.73;;
82920;SDS011;72696;52.372;9.722;2023-10-08T04:15:41;3.95;;;1.90;;
82920;SDS011;72696;52.372;9.722;2023-10-08T04:18:07;1.60;;;1.38;;
82920;SDS011;72696;52.372;9.722;2023-10-08T04:20:36;3.40;;;1.30;;
82920;SDS011;72696;52.372;9.722;2023-10-08T04:25:31;4.20;;;1.60;;
82920;SDS011;72696;52.372;9.722;2023-10-08T04:27:58;1.73;;;1.35;;
82920;SDS011;72696;52.372;9.722;2023-10-08T04:30:34;3.08;;;1.50;;
82920;SDS011;72696;52.372;9.722;2023-10-08T04:33:01;3.10;;;1.60;;
82920;SDS011;72696;52.372;9.722;2023-10-08T04:35:33;4.15;;;2.08;;
82920;SDS011;72696;52.372;9.722;2023-10-08T04:38:02;2.70;;;1.67;;
82920;SDS011;72696;52.372;9.722;2023-10-08T04:40:33;3.67;;;1.70;;
82920;SDS011;72696;52.372;9.722;2023-10-08T04:43:06;3.53;;;1.70;;
82920;SDS011;72696;52.372;9.722;2023-10-08T04:45:35;7.43;;;2.15;;
82920;SDS011;72696;52.372;9.722;2023-10-08T04:48:02;3.83;;;1.55;;
82920;SDS011;72696;52.372;9.722;2023-10-08T04:50:29;3.67;;;1.67;;
82920;SDS011;72696;52.372;9.722;2023-10-08T04:52:55;6.53;;;2.00;;
82920;SDS011;72696;52.372;9.722;2023-10-08T04:55:26;2.83;;;1.63;;
82920;SDS011;72696;52.372;9.722;2023-10-08T04:57:55;4.75;;;1.73;;
82920;SDS011;72696;52.372;9.722;2023-10-08T05:00:21;2.28;;;1.50;;
82920;SDS011;72696;52.372;9.722;2023-10-08T05:03:05;1.48;;;1.23;;
82920;SDS011;72696;52.372;9.722;2023-10-08T05:05:38;3.90;;;1.55;;
82920;SDS011;72696;52.372;9.722;2023-10-08T05:08:20;3.30;;;1.60;;
82920;SDS011;72696;52.372;9.722;2023-10-08T05:11:12;1.88;;;1.30;;
82920;SDS011;72696;52.372;9.722;2023-10-08T05:14:02;5.88;;;1.77;;
82920;SDS011;72696;52.372;9.722;2023-10-08T05:16:31;2.67;;;1.63;;
82920;SDS011;72696;52.372;9.722;2023-10-08T05:19:25;4.25;;;1.83;;
82920;SDS011;72696;52.372;9.722;2023-10-08T05:22:09;2.47;;;1.40;;
82920;SDS011;72696;52.372;9.722;2023-10-08T05:24:54;3.72;;;1.75;;
82920;SDS011;72696;52.372;9.722;2023-10-08T05:27:36;2.25;;;1.50;;
82920;SDS011;72696;52.372;9.722;2023-10-08T05:30:06;2.95;;;1.58;;
82920;SDS011;72696;52.372;9.722;2023-10-08T05:32:42;5.28;;;1.50;;
82920;SDS011;72696;52.372;9.722;2023-10-08T05:35:35;3.92;;;2.22;;
82920;SDS011;72696;52.372;9.722;2023-10-08T05:38:10;2.15;;;1.35;;
82920;SDS011;72696;52.372;9.722;2023-10-08T05:40:55;5.05;;;1.70;;
82920;SDS011;72696;52.372;9.722;2023-10-08T05:46:08;4.07;;;2.00;;
82920;SDS011;72696;52.372;9.722;2023-10-08T05:48:46;5.30;;;1.88;;
82920;SDS011;72696;52.372;9.722;2023-10-08T05:51:26;4.18;;;1.63;;
82920;SDS011;72696;52.372;9.722;2023-10-08T05:54:31;4.00;;;1.58;;
82920;SDS011;72696;52.372;9.722;2023-10-08T05:57:07;3.67;;;1.73;;
82920;SDS011;72696;52.372;9.722;2023-10-08T05:59:45;6.53;;;2.00;;
82920;SDS011;72696;52.372;9.722;2023-10-08T06:02:21;5.55;;;1.92;;
82920;SDS011;72696;52.372;9.722;2023-10-08T06:05:00;3.50;;;1.92;;
82920;SDS011;72696;52.372;9.722;2023-10-08T06:07:41;3.28;;;2.17;;
82920;SDS011;72696;52.372;9.722;2023-10-08T06:10:31;4.88;;;2.20;;
82920;SDS011;72696;52.372;9.722;2023-10-08T06:13:04;3.15;;;2.00;;
82920;SDS011;72696;52.372;9.722;2023-10-08T06:15:45;4.32;;;1.90;;
82920;SDS011;72696;52.372;9.722;2023-10-08T06:18:15;5.40;;;1.85;;
82920;SDS011;72696;52.372;9.722;2023-10-08T06:20:41;3.80;;;1.98;;
82920;SDS011;72696;52.372;9.722;2023-10-08T06:23:13;3.72;;;2.28;;
82920;SDS011;72696;52.372;9.722;2023-10-08T06:25:47;5.22;;;2.22;;
82920;SDS011;72696;52.372;9.722;2023-10-08T06:28:19;2.85;;;1.85;;
82920;SDS011;72696;52.372;9.722;2023-10-08T06:30:48;4.38;;;2.20;;
82920;SDS011;72696;52.372;9.722;2023-10-08T06:33:15;3.25;;;1.90;;
82920;SDS011;72696;52.372;9.722;2023-10-08T06:35:41;2.70;;;2.00;;
82920;SDS011;72696;52.372;9.722;2023-10-08T06:38:22;4.35;;;1.98;;
82920;SDS011;72696;52.372;9.722;2023-10-08T06:40:49;3.30;;;1.80;;
82920;SDS011;72696;52.372;9.722;2023-10-08T06:43:17;4.25;;;2.10;;
82920;SDS011;72696;52.372;9.722;2023-10-08T06:45:47;4.22;;;2.20;;
82920;SDS011;72696;52.372;9.722;2023-10-08T06:48:17;3.67;;;2.40;;
82920;SDS011;72696;52.372;9.722;2023-10-08T06:50:52;5.72;;;2.30;;
82920;SDS011;72696;52.372;9.722;2023-10-08T06:53:22;4.00;;;1.92;;
82920;SDS011;72696;52.372;9.722;2023-10-08T06:55:48;4.95;;;2.30;;
82920;SDS011;72696;52.372;9.722;2023-10-08T06:58:20;4.28;;;2.20;;
82920;SDS011;72696;52.372;9.722;2023-10-08T07:00:45;4.93;;;2.17;;
82920;SDS011;72696;52.372;9.722;2023-10-08T07:03:14;4.43;;;2.47;;
82920;SDS011;72696;52.372;9.722;2023-10-08T07:05:47;4.32;;;2.38;;
82920;SDS011;72696;52.372;9.722;2023-10-08T07:08:23;6.10;;;2.53;;
82920;SDS011;72696;52.372;9.722;2023-10-08T07:10:50;4.47;;;2.08;;
82920;SDS011;72696;52.372;9.722;2023-10-08T07:13:16;4.10;;;2.17;;
82920;SDS011;72696;52.372;9.722;2023-10-08T07:15:47;6.03;;;2.70;;
82920;SDS011;72696;52.372;9.722;2023-10-08T07:18:15;5.65;;;2.20;;
82920;SDS011;72696;52.372;9.722;2023-10-08T07:20:47;4.35;;;2.78;;
82920;SDS011;72696;52.372;9.722;2023-10-08T07:23:18;5.60;;;2.45;;
82920;SDS011;72696;52.372;9.722;2023-10-08T07:25:45;3.80;;;2.28;;
82920;SDS011;72696;52.372;9.722;2023-10-08T07:28:16;4.80;;;2.40;;
82920;SDS011;72696;52.372;9.722;2023-10-08T07:30:44;5.15;;;2.85;;
82920;SDS011;72696;52.372;9.722;2023-10-08T07:33:10;4.40;;;2.40;;
82920;SDS011;72696;52.372;9.722;2023-10-08T07:35:43;6.85;;;3.03;;
82920;SDS011;72696;52.372;9.722;2023-10-08T07:38:17;5.07;;;2.35;;
82920;SDS011;72696;52.372;9.722;2023-10-08T07:40:42;5.13;;;2.83;;
82920;SDS011;72696;52.372;9.722;2023-10-08T07:43:09;7.68;;;2.63;;
82920;SDS011;72696;52.372;9.722;2023-10-08T07:45:35;3.60;;;2.45;;
82920;SDS011;72696;52.372;9.722;2023-10-08T07:48:01;4.72;;;2.80;;
82920;SDS011;72696;52.372;9.722;2023-10-08T07:50:32;4.47;;;2.92;;
82920;SDS011;72696;52.372;9.722;2023-10-08T07:52:59;6.70;;;2.95;;
82920;SDS011;72696;52.372;9.722;2023-10-08T07:55:24;6.55;;;3.30;;
82920;SDS011;72696;52.372;9.722;2023-10-08T07:57:49;6.55;;;3.58;;
82920;SDS011;72696;52.372;9.722;2023-10-08T08:00:15;6.03;;;3.97;;
82920;SDS011;72696;52.372;9.722;2023-10-08T08:02:47;6.72;;;3.55;;
82920;SDS011;72696;52.372;9.722;2023-10-08T08:05:13;6.15;;;3.88;;
82920;SDS011;72696;52.372;9.722;2023-10-08T08:07:42;7.20;;;3.78;;
82920;SDS011;72696;52.372;9.722;2023-10-08T08:10:11;7.88;;;3.80;;
82920;SDS011;72696;52.372;9.722;2023-10-08T08:12:36;6.80;;;3.70;;
82920;SDS011;72696;52.372;9.722;2023-10-08T08:15:03;5.15;;;3.30;;
82920;SDS011;72696;52.372;9.722;2023-10-08T08:17:41;6.32;;;3.35;;
82920;SDS011;72696;52.372;9.722;2023-10-08T08:20:07;5.90;;;3.60;;
82920;SDS011;72696;52.372;9.722;2023-10-08T08:22:42;8.05;;;3.45;;
82920;SDS011;72696;52.372;9.722;2023-10-08T08:25:15;6.65;;;3.65;;
82920;SDS011;72696;52.372;9.722;2023-10-08T08:27:58;6.35;;;3.83;;
82920;SDS011;72696;52.372;9.722;2023-10-08T08:30:25;6.90;;;3.35;;
82920;SDS011;72696;52.372;9.722;2023-10-08T08:32:51;9.73;;;4.00;;
82920;SDS011;72696;52.372;9.722;2023-10-08T08:35:16;5.32;;;3.40;;
82920;SDS011;72696;52.372;9.722;2023-10-08T08:37:42;6.80;;;3.53;;
82920;SDS011;72696;52.372;9.722;2023-10-08T08:40:08;7.15;;;4.30;;
82920;SDS011;72696;52.372;9.722;2023-10-08T08:42:34;4.90;;;3.03;;
82920;SDS011;72696;52.372;9.722;2023-10-08T08:45:00;6.00;;;3.28;;
82920;SDS011;72696;52.372;9.722;2023-10-08T08:47:28;5.13;;;3.55;;
82920;SDS011;72696;52.372;9.722;2023-10-08T08:49:54;7.10;;;4.20;;
82920;SDS011;72696;52.372;9.722;2023-10-08T08:52:21;5.13;;;3.40;;
82920;SDS011;72696;52.372;9.722;2023-10-08T08:54:47;8.43;;;3.38;;
82920;SDS011;72696;52.372;9.722;2023-10-08T08:57:12;8.80;;;3.90;;
82920;SDS011;72696;52.372;9.722;2023-10-08T08:59:40;5.05;;;3.05;;
82920;SDS011;72696;52.372;9.722;2023-10-08T09:02:11;4.63;;;2.70;;
82920;SDS011;72696;52.372;9.722;2023-10-08T09:04:39;8.80;;;3.78;;
82920;SDS011;72696;52.372;9.722;2023-10-08T09:07:04;7.32;;;3.70;;
82920;SDS011;72696;52.372;9.722;2023-10-08T09:09:33;7.47;;;3.40;;
82920;SDS011;72696;52.372;9.722;2023-10-08T09:12:00;4.72;;;3.03;;
82920;SDS011;72696;52.372;9.722;2023-10-08T09:14:26;9.88;;;3.80;;
82920;SDS011;72696;52.372;9.722;2023-10-08T09:16:54;6.63;;;3.05;;
82920;SDS011;72696;52.372;9.722;2023-10-08T09:19:20;6.70;;;3.50;;
82920;SDS011;72696;52.372;9.722;2023-10-08T09:22:10;4.07;;;2.75;;
82920;SDS011;72696;52.372;9.722;2023-10-08T09:24:38;5.72;;;2.22;;
82920;SDS011;72696;52.372;9.722;2023-10-08T09:27:04;5.20;;;2.70;;
82920;SDS011;72696;52.372;9.722;2023-10-08T09:29:31;6.10;;;3.10;;
82920;SDS011;72696;52.372;9.722;2023-10-08T09:31:58;5.32;;;3.10;;
82920;SDS011;72696;52.372;9.722;2023-10-08T09:34:30;4.45;;;2.97;;
82920;SDS011;72696;52.372;9.722;2023-10-08T09:36:56;5.18;;;2.97;;
82920;SDS011;72696;52.372;9.722;2023-10-08T09:39:23;4.65;;;3.05;;
82920;SDS011;72696;52.372;9.722;2023-10-08T09:41:55;4.43;;;2.80;;
82920;SDS011;72696;52.372;9.722;2023-10-08T09:44:21;3.95;;;2.67;;
82920;SDS011;72696;52.372;9.722;2023-10-08T09:46:54;3.60;;;2.53;;
82920;SDS011;72696;52.372;9.722;2023-10-08T09:49:40;5.53;;;2.25;;
82920;SDS011;72696;52.372;9.722;2023-10-08T09:52:09;2.80;;;1.83;;
82920;SDS011;72696;52.372;9.722;2023-10-08T09:54:48;4.00;;;2.35;;
82920;SDS011;72696;52.372;9.722;2023-10-08T09:57:15;5.72;;;2.10;;
82920;SDS011;72696;52.372;9.722;2023-10-08T09:59:44;3.75;;;2.20;;
82920;SDS011;72696;52.372;9.722;2023-10-08T10:02:11;5.50;;;2.20;;
82920;SDS011;72696;52.372;9.722;2023-10-08T10:04:41;4.85;;;2.25;;
82920;SDS011;72696;52.372;9.722;2023-10-08T10:07:11;3.75;;;2.00;;
82920;SDS011;72696;52.372;9.722;2023-10-08T10:09:38;2.53;;;1.90;;
82920;SDS011;72696;52.372;9.722;2023-10-08T10:12:05;5.47;;;2.03;;
82920;SDS011;72696;52.372;9.722;2023-10-08T10:14:41;7.85;;;2.33;;
82920;SDS011;72696;52.372;9.722;2023-10-08T10:17:21;5.30;;;1.83;;
82920;SDS011;72696;52.372;9.722;2023-10-08T10:19:54;3.55;;;1.88;;
82920;SDS011;72696;52.372;9.722;2023-10-08T10:22:54;6.53;;;1.90;;
82920;SDS011;72696;52.372;9.722;2023-10-08T10:25:15;3.03;;;2.10;;
82920;SDS011;72696;52.372;9.722;2023-10-08T10:30:16;4.85;;;1.90;;
82920;SDS011;72696;52.372;9.722;2023-10-08T10:32:44;6.28;;;2.60;;
82920;SDS011;72696;52.372;9.722;2023-10-08T10:35:14;6.88;;;2.40;;
82920;SDS011;72696;52.372;9.722;2023-10-08T10:37:42;9.55;;;2.80;;
82920;SDS011;72696;52.372;9.722;2023-10-08T10:40:19;7.15;;;2.83;;
82920;SDS011;72696;52.372;9.722;2023-10-08T10:42:55;7.30;;;3.80;;
82920;SDS011;72696;52.372;9.722;2023-10-08T10:45:21;5.35;;;2.45;;
82920;SDS011;72696;52.372;9.722;2023-10-08T10:48:05;4.38;;;2.30;;
82920;SDS011;72696;52.372;9.722;2023-10-08T10:50:58;4.88;;;2.15;;
82920;SDS011;72696;52.372;9.722;2023-10-08T10:53:31;6.63;;;2.45;;
82920;SDS011;72696;52.372;9.722;2023-10-08T10:55:58;6.43;;;1.85;;
82920;SDS011;72696;52.372;9.722;2023-10-08T10:58:34;5.22;;;1.90;;
82920;SDS011;72696;52.372;9.722;2023-10-08T11:01:04;6.28;;;2.10;;
82920;SDS011;72696;52.372;9.722;2023-10-08T11:03:40;6.13;;;2.30;;
82920;SDS011;72696;52.372;9.722;2023-10-08T11:06:07;4.70;;;1.80;;
82920;SDS011;72696;52.372;9.722;2023-10-08T11:08:40;4.82;;;2.25;;
82920;SDS011;72696;52.372;9.722;2023-10-08T11:11:11;5.63;;;2.28;;
82920;SDS011;72696;52.372;9.722;2023-10-08T11:13:36;5.05;;;2.30;;
82920;SDS011;72696;52.372;9.722;2023-10-08T11:16:05;5.40;;;2.28;;
82920;SDS011;72696;52.372;9.722;2023-10-08T11:18:32;5.13;;;2.30;;
82920;SDS011;72696;52.372;9.722;2023-10-08T11:21:08;5.22;;;2.65;;
82920;SDS011;72696;52.372;9.722;2023-10-08T11:23:49;3.70;;;2.10;;
82920;SDS011;72696;52.372;9.722;2023-10-08T11:26:19;6.10;;;2.08;;
82920;SDS011;72696;52.372;9.722;2023-10-08T11:28:45;3.60;;;1.95;;
82920;SDS011;72696;52.372;9.722;2023-10-08T11:31:16;5.43;;;1.90;;
82920;SDS011;72696;52.372;9.722;2023-10-08T11:33:44;5.70;;;1.90;;
82920;SDS011;72696;52.372;9.722;2023-10-08T11:36:19;5.82;;;1.80;;
82920;SDS011;72696;52.372;9.722;2023-10-08T11:38:46;5.78;;;2.10;;
82920;SDS011;72696;52.372;9.722;2023-10-08T11:41:16;7.95;;;1.98;;
82920;SDS011;72696;52.372;9.722;2023-10-08T11:43:52;4.25;;;1.90;;
82920;SDS011;72696;52.372;9.722;2023-10-08T11:46:28;4.38;;;1.70;;
82920;SDS011;72696;52.372;9.722;2023-10-08T11:49:06;2.97;;;1.85;;
82920;SDS011;72696;52.372;9.722;2023-10-08T11:51:36;6.15;;;2.03;;
82920;SDS011;72696;52.372;9.722;2023-10-08T11:54:02;3.10;;;1.88;;
82920;SDS011;72696;52.372;9.722;2023-10-08T11:56:30;4.07;;;1.67;;
82920;SDS011;72696;52.372;9.722;2023-10-08T11:58:58;6.20;;;1.92;;
82920;SDS011;72696;52.372;9.722;2023-10-08T12:01:25;5.65;;;1.92;;
82920;SDS011;72696;52.372;9.722;2023-10-08T12:03:52;5.50;;;2.10;;
82920;SDS011;72696;52.372;9.722;2023-10-08T12:06:24;4.07;;;1.75;;
82920;SDS011;72696;52.372;9.722;2023-10-08T12:08:50;4.75;;;1.80;;
82920;SDS011;72696;52.372;9.722;2023-10-08T12:11:18;3.85;;;1.90;;
82920;SDS011;72696;52.372;9.722;2023-10-08T12:13:44;5.18;;;2.30;;
82920;SDS011;72696;52.372;9.722;2023-10-08T12:16:11;6.22;;;2.05;;
82920;SDS011;72696;52.372;9.722;2023-10-08T12:18:46;4.20;;;2.08;;
82920;SDS011;72696;52.372;9.722;2023-10-08T12:21:23;5.00;;;2.00;;
82920;SDS011;72696;52.372;9.722;2023-10-08T12:23:55;6.40;;;2.10;;
82920;SDS011;72696;52.372;9.722;2023-10-08T12:26:22;4.68;;;1.73;;
82920;SDS011;72696;52.372;9.722;2023-10-08T12:28:47;3.92;;;1.90;;
82920;SDS011;72696;52.372;9.722;2023-10-08T12:31:17;3.55;;;1.80;;
82920;SDS011;72696;52.372;9.722;2023-10-08T12:33:47;3.55;;;1.90;;
82920;SDS011;72696;52.372;9.722;2023-10-08T12:36:13;5.40;;;2.10;;
82920;SDS011;72696;52.372;9.722;2023-10-08T12:38:39;5.80;;;2.20;;
82920;SDS011;72696;52.372;9.722;2023-10-08T12:41:09;3.40;;;1.95;;
82920;SDS011;72696;52.372;9.722;2023-10-08T12:43:38;6.22;;;2.42;;
82920;SDS011;72696;52.372;9.722;2023-10-08T12:46:07;4.75;;;1.95;;
82920;SDS011;72696;52.372;9.722;2023-10-08T12:48:36;4.20;;;2.13;;
82920;SDS011;72696;52.372;9.722;2023-10-08T12:51:02;3.75;;;1.92;;
82920;SDS011;72696;52.372;9.722;2023-10-08T12:53:30;4.97;;;2.15;;
82920;SDS011;72696;52.372;9.722;2023-10-08T12:55:59;5.13;;;2.00;;
82920;SDS011;72696;52.372;9.722;2023-10-08T12:58:31;3.80;;;1.80;;
82920;SDS011;72696;52.372;9.722;2023-10-08T13:01:03;2.95;;;1.73;;
82920;SDS011;72696;52.372;9.722;2023-10-08T13:03:29;4.32;;;1.90;;
82920;SDS011;72696;52.372;9.722;2023-10-08T13:05:58;5.13;;;2.13;;
82920;SDS011;72696;52.372;9.722;2023-10-08T13:08:36;2.65;;;1.73;;
82920;SDS011;72696;52.372;9.722;2023-10-08T13:11:02;6.25;;;2.30;;
82920;SDS011;72696;52.372;9.722;2023-10-08T13:13:30;3.08;;;1.73;;
82920;SDS011;72696;52.372;9.722;2023-10-08T13:15:57;3.88;;;1.95;;
82920;SDS011;72696;52.372;9.722;2023-10-08T13:18:25;2.83;;;1.80;;
82920;SDS011;72696;52.372;9.722;2023-10-08T13:20:51;3.42;;;2.22;;
82920;SDS011;72696;52.372;9.722;2023-10-08T13:23:17;3.58;;;1.70;;
82920;SDS011;72696;52.372;9.722;2023-10-08T13:25:45;3.58;;;2.30;;
82920;SDS011;72696;52.372;9.722;2023-10-08T13:28:16;5.03;;;2.30;;
82920;SDS011;72696;52.372;9.722;2023-10-08T13:30:42;4.05;;;1.95;;
82920;SDS011;72696;52.372;9.722;2023-10-08T13:33:07;6.07;;;1.90;;
82920;SDS011;72696;52.372;9.722;2023-10-08T13:35:34;3.53;;;1.80;;
82920;SDS011;72696;52.372;9.722;2023-10-08T13:37:59;5.70;;;2.20;;
82920;SDS011;72696;52.372;9.722;2023-10-08T13:40:31;3.88;;;2.10;;
82920;SDS011;72696;52.372;9.722;2023-10-08T13:42:57;5.55;;;1.88;;
82920;SDS011;72696;52.372;9.722;2023-10-08T13:45:23;3.38;;;1.90;;
82920;SDS011;72696;52.372;9.722;2023-10-08T13:47:51;4.93;;;1.98;;
82920;SDS011;72696;52.372;9.722;2023-10-08T13:50:17;6.20;;;1.90;;
82920;SDS011;72696;52.372;9.722;2023-10-08T13:52:43;4.07;;;1.90;;
82920;SDS011;72696;52.372;9.722;2023-10-08T13:55:09;2.90;;;1.90;;
82920;SDS011;72696;52.372;9.722;2023-10-08T13:57:39;4.50;;;2.40;;
82920;SDS011;72696;52.372;9.722;2023-10-08T14:00:06;3.80;;;1.80;;
82920;SDS011;72696;52.372;9.722;2023-10-08T14:02:40;3.33;;;2.10;;
82920;SDS011;72696;52.372;9.722;2023-10-08T14:05:06;3.95;;;1.90;;
82920;SDS011;72696;52.372;9.722;2023-10-08T14:07:34;3.00;;;1.77;;
82920;SDS011;72696;52.372;9.722;2023-10-08T14:10:00;3.20;;;1.70;;
82920;SDS011;72696;52.372;9.722;2023-10-08T14:12:30;6.35;;;2.00;;
82920;SDS011;72696;52.372;9.722;2023-10-08T14:15:00;4.03;;;2.00;;
82920;SDS011;72696;52.372;9.722;2023-10-08T14:17:31;5.30;;;2.03;;
82920;SDS011;72696;52.372;9.722;2023-10-08T14:20:13;6.25;;;2.00;;
82920;SDS011;72696;52.372;9.722;2023-10-08T14:22:39;6.70;;;2.25;;
82920;SDS011;72696;52.372;9.722;2023-10-08T14:25:09;5.15;;;1.95;;
82920;SDS011;72696;52.372;9.722;2023-10-08T14:27:38;4.40;;;1.75;;
82920;SDS011;72696;52.372;9.722;2023-10-08T14:30:08;4.35;;;1.98;;
82920;SDS011;72696;52.372;9.722;2023-10-08T14:32:40;3.80;;;1.88;;
82920;SDS011;72696;52.372;9.722;2023-10-08T14:37:54;3.38;;;1.95;;
82920;SDS011;72696;52.372;9.722;2023-10-08T14:40:38;4.47;;;1.85;;
82920;SDS011;72696;52.372;9.722;2023-10-08T14:43:22;3.40;;;2.20;;
82920;SDS011;72696;52.372;9.722;2023-10-08T14:45:49;4.50;;;1.90;;
82920;SDS011;72696;52.372;9.722;2023-10-08T14:48:14;5.75;;;2.10;;
82920;SDS011;72696;52.372;9.722;2023-10-08T14:50:39;4.43;;;2.00;;
82920;SDS011;72696;52.372;9.722;2023-10-08T14:53:07;4.25;;;2.05;;
82920;SDS011;72696;52.372;9.722;2023-10-08T14:55:32;7.32;;;2.13;;
82920;SDS011;72696;52.372;9.722;2023-10-08T14:58:01;4.13;;;2.10;;
82920;SDS011;72696;52.372;9.722;2023-10-08T15:00:33;5.03;;;1.88;;
82920;SDS011;72696;52.372;9.722;2023-10-08T15:03:01;4.00;;;1.92;;
82920;SDS011;72696;52.372;9.722;2023-10-08T15:05:28;5.93;;;2.40;;
82920;SDS011;72696;52.372;9.722;2023-10-08T15:07:53;3.47;;;1.92;;
82920;SDS011;72696;52.372;9.722;2023-10-08T15:10:19;4.95;;;1.92;;
82920;SDS011;72696;52.372;9.722;2023-10-08T15:12:46;4.45;;;2.08;;
82920;SDS011;72696;52.372;9.722;2023-10-08T15:15:12;4.53;;;2.03;;
82920;SDS011;72696;52.372;9.722;2023-10-08T15:20:10;6.10;;;2.20;;
82920;SDS011;72696;52.372;9.722;2023-10-08T15:22:42;4.53;;;1.95;;
82920;SDS011;72696;52.372;9.722;2023-10-08T15:25:09;3.60;;;1.80;;
82920;SDS011;72696;52.372;9.722;2023-10-08T15:27:36;6.45;;;1.85;;